Time;durP1;ratioP1;P1;durP2;ratioP2;P2;SDS_P1;SDS_P2;PMS_P1;PMS_P2;Temp;Humidity;BMP_temperature;BMP_pressure;BME280_temperature;BME280_humidity;BME280_pressure;Samples;Min_cycle;Max_cycle;Signal;HPM_P1;HPM_P2
2022/06/15 00:02:58;;;;;;;6.90;3.42;;;;;;;14.08;57.28;100801.34;10357001;28;20457;-78
2022/06/15 00:08:01;;;;;;;7.15;2.90;;;;;;;14.04;57.17;100808.00;10379394;28;20459;-77
2022/06/15 00:13:05;;;;;;;5.13;2.95;;;;;;;13.99;57.67;100803.03;10364403;28;20221;-77
2022/06/15 00:18:08;;;;;;;8.55;3.70;;;;;;;14.14;57.47;100800.78;10353510;28;20108;-77
2022/06/15 00:23:11;;;;;;;5.90;3.22;;;;;;;13.99;57.41;100803.03;10359155;28;20534;-77
2022/06/15 00:28:15;;;;;;;;;;;;;;;13.80;57.87;100792.16;10352085;28;20126;-77
2022/06/15 00:33:19;;;;;;;5.70;3.22;;;;;;;13.75;58.25;100795.25;10350613;28;20345;-77
2022/06/15 00:38:23;;;;;;;8.57;3.10;;;;;;;13.75;58.53;100776.34;10377431;28;20053;-77
2022/06/15 00:43:35;;;;;;;6.72;2.97;;;;;;;13.92;58.26;100770.28;10353310;28;20141;-79
2022/06/15 00:48:38;;;;;;;6.07;3.08;;;;;;;13.86;58.07;100773.56;10363191;28;20049;-77
2022/06/15 00:53:41;;;;;;;5.97;3.05;;;;;;;13.73;58.29;100763.97;10368124;28;20081;-78
2022/06/15 00:58:51;;;;;;;7.70;2.90;;;;;;;13.56;58.89;100754.66;10376178;28;20507;-78
2022/06/15 01:03:56;;;;;;;8.73;3.55;;;;;;;13.54;58.83;100753.94;10389605;28;20060;-78
2022/06/15 01:09:05;;;;;;;5.05;3.58;;;;;;;13.23;59.59;100764.69;10362881;28;20073;-78
2022/06/15 01:14:41;;;;;;;6.53;3.53;;;;;;;13.08;60.19;100760.59;10374042;28;20050;-78
2022/06/15 01:20:02;;;;;;;6.22;3.58;;;;;;;13.07;60.06;100761.59;10357877;28;20042;-78
2022/06/15 01:25:27;;;;;;;8.13;3.97;;;;;;;13.01;60.36;100758.44;10356782;28;20072;-77
2022/06/15 01:30:39;;;;;;;7.85;3.45;;;;;;;13.22;60.11;100762.97;10376865;28;20048;-78
2022/06/15 01:35:56;;;;;;;7.22;3.47;;;;;;;13.11;59.62;100752.22;10376996;28;20045;-78
2022/06/15 01:41:09;;;;;;;6.50;2.92;;;;;;;12.85;60.22;100746.38;10362191;28;20053;-78
2022/06/15 01:46:14;;;;;;;8.77;3.40;;;;;;;12.62;61.05;100764.50;10357729;28;20049;-78
2022/06/15 01:51:23;;;;;;;6.90;3.40;;;;;;;12.45;61.89;100766.78;10375291;28;20046;-77
2022/06/15 01:56:32;;;;;;;9.23;4.10;;;;;;;12.58;61.92;100755.81;10357835;28;20114;-78
2022/06/15 02:01:46;;;;;;;8.80;4.45;;;;;;;12.62;61.67;100761.81;10343626;28;20132;-78
2022/06/15 02:07:03;;;;;;;11.25;4.68;;;;;;;12.45;62.04;100757.81;10343373;28;20049;-78
2022/06/15 02:12:08;;;;;;;10.07;4.32;;;;;;;12.51;62.27;100760.00;10354134;28;20719;-78
2022/06/15 02:17:20;;;;;;;8.73;4.03;;;;;;;12.43;62.20;100752.56;10364651;28;20041;-77
2022/06/15 02:22:28;;;;;;;5.97;3.50;;;;;;;12.41;62.37;100751.81;10355214;28;20065;-78
2022/06/15 02:27:33;;;;;;;6.60;4.10;;;;;;;12.48;62.43;100730.59;10337505;28;20519;-78
2022/06/15 02:32:39;;;;;;;8.40;3.95;;;;;;;12.60;61.86;100733.13;10353681;28;20107;-78
2022/06/15 02:37:42;;;;;;;8.40;4.68;;;;;;;12.37;61.70;100735.06;10352738;28;20057;-78
2022/06/15 02:42:46;;;;;;;8.32;4.57;;;;;;;12.12;62.85;100736.22;10373434;28;21257;-78
2022/06/15 02:47:55;;;;;;;12.05;4.82;;;;;;;12.11;63.45;100736.31;10362624;28;20484;-78
2022/06/15 02:53:06;;;;;;;7.75;4.60;;;;;;;12.14;63.04;100736.94;10366543;28;20054;-78
2022/06/15 02:58:13;;;;;;;11.60;4.93;;;;;;;12.07;63.31;100729.50;10358418;28;20045;-78
2022/06/15 03:03:26;;;;;;;10.40;5.15;;;;;;;11.97;63.91;100733.91;10383318;28;20069;-78
2022/06/15 03:08:39;;;;;;;12.05;5.07;;;;;;;11.68;64.69;100735.31;10379162;28;20046;-78
2022/06/15 03:13:52;;;;;;;6.82;4.53;;;;;;;11.72;64.77;100727.81;10353735;28;20056;-78
2022/06/15 03:18:57;;;;;;;8.20;4.63;;;;;;;11.76;64.46;100726.59;10375919;28;20054;-78
2022/06/15 03:24:00;;;;;;;6.35;4.75;;;;;;;11.80;64.55;100725.38;10358621;28;20069;-78
2022/06/15 03:29:05;;;;;;;13.10;5.00;;;;;;;11.62;64.87;100722.31;10367257;28;20196;-78
2022/06/15 03:34:09;;;;;;;9.77;5.00;;;;;;;11.43;65.98;100714.00;10378153;28;20053;-78
2022/06/15 03:39:12;;;;;;;7.43;4.40;;;;;;;11.50;65.85;100723.31;10364031;28;20060;-78
2022/06/15 03:44:17;;;;;;;7.88;4.93;;;;;;;11.53;65.69;100723.06;10397818;28;20049;-78
2022/06/15 03:49:22;;;;;;;13.98;5.65;;;;;;;11.20;66.66;100724.75;10397738;28;20121;-78
2022/06/15 03:54:26;;;;;;;9.38;5.70;;;;;;;11.16;67.46;100725.09;10351075;28;20411;-77
2022/06/15 03:59:29;;;;;;;7.75;6.30;;;;;;;11.52;66.68;100718.66;10364005;28;20046;-78
2022/06/15 04:04:40;;;;;;;8.90;5.45;;;;;;;11.59;66.14;100719.88;10360482;28;20042;-78
2022/06/15 04:09:45;;;;;;;10.55;5.32;;;;;;;11.75;65.93;100716.81;10388815;28;20042;-78
2022/06/15 04:14:49;;;;;;;6.70;5.20;;;;;;;11.86;65.67;100705.19;10376952;28;20057;-77
2022/06/15 04:25:36;;;;;;;7.90;5.20;;;;;;;12.03;65.76;100710.03;10356179;28;20064;-78
2022/06/15 04:30:39;;;;;;;6.35;5.00;;;;;;;12.13;65.29;100712.84;10372198;28;20042;-78
2022/06/15 04:35:45;;;;;;;10.65;5.45;;;;;;;12.28;64.95;100708.88;10375269;28;20049;-77
2022/06/15 04:40:52;;;;;;;11.07;5.15;;;;;;;12.21;65.19;100713.06;10332373;28;20058;-77
2022/06/15 04:45:55;;;;;;;7.30;5.32;;;;;;;12.39;65.20;100706.16;10341935;28;20053;-77
2022/06/15 04:51:11;;;;;;;8.95;4.80;;;;;;;12.68;64.75;100702.84;10352566;28;20337;-77
2022/06/15 04:56:22;;;;;;;10.30;5.15;;;;;;;12.85;63.96;100706.78;10358548;28;20049;-77
2022/06/15 05:01:25;;;;;;;10.18;5.35;;;;;;;13.00;63.38;100704.63;10385939;28;20111;-77
2022/06/15 05:06:35;;;;;;;8.35;5.63;;;;;;;13.16;63.13;100707.69;10358695;28;20633;-77
2022/06/15 05:11:41;;;;;;;7.55;5.45;;;;;;;13.16;62.94;100709.53;10342978;28;20053;-77
2022/06/15 05:16:43;;;;;;;;;;;;;;;13.31;62.90;100713.59;10351423;28;20046;-77
2022/06/15 05:21:52;;;;;;;11.20;5.38;;;;;;;13.59;62.13;100714.75;10360051;28;19925;-77
2022/06/15 05:26:56;;;;;;;8.88;5.20;;;;;;;13.68;60.14;100711.22;10358777;28;20510;-77
2022/06/15 05:31:59;;;;;;;11.10;5.22;;;;;;;13.72;60.79;100709.13;10357428;28;20135;-77
2022/06/15 05:37:05;;;;;;;6.80;4.80;;;;;;;13.87;60.15;100706.88;10376571;28;20102;-77
2022/06/15 05:42:11;;;;;;;11.88;4.90;;;;;;;13.86;59.02;100716.00;10361815;28;20479;-77
2022/06/15 05:47:16;;;;;;;8.88;5.30;;;;;;;13.97;59.86;100709.63;10356091;28;20069;-77
2022/06/15 05:52:44;;;;;;;8.48;5.60;;;;;;;14.12;59.60;100719.03;10358983;28;20049;-78
2022/06/15 05:57:47;;;;;;;7.88;4.60;;;;;;;14.20;58.81;100719.19;10371894;28;20050;-78
2022/06/15 06:02:50;;;;;;;6.28;4.10;;;;;;;14.35;59.06;100723.19;10340523;28;20681;-78
2022/06/15 06:07:56;;;;;;;9.18;3.60;;;;;;;14.67;59.33;100718.53;10345387;28;20050;-77
2022/06/15 06:12:59;;;;;;;7.70;4.55;;;;;;;15.06;58.53;100716.66;10356372;28;20068;-78
2022/06/15 06:18:02;;;;;;;8.95;3.25;;;;;;;15.35;58.20;100722.00;10363620;28;20061;-78
2022/06/15 06:23:07;;;;;;;6.75;4.32;;;;;;;15.66;57.17;100725.31;10372204;28;20057;-78
2022/06/15 06:28:21;;;;;;;5.85;4.40;;;;;;;15.85;57.66;100728.91;10354379;28;20511;-78
2022/06/15 06:33:24;;;;;;;9.48;4.32;;;;;;;16.23;56.61;100718.88;10343272;28;20155;-77
2022/06/15 06:38:28;;;;;;;5.35;4.53;;;;;;;16.62;56.11;100714.03;10347958;28;20103;-77
2022/06/15 06:43:31;;;;;;;8.23;5.00;;;;;;;16.78;55.50;100713.31;10362759;28;20057;-78
2022/06/15 06:48:34;;;;;;;14.25;4.95;;;;;;;17.10;54.52;100707.28;10373167;28;20072;-77
2022/06/15 06:53:39;;;;;;;8.95;3.90;;;;;;;17.29;53.32;100710.84;10364932;28;20246;-78
2022/06/15 06:58:42;;;;;;;7.38;4.40;;;;;;;17.52;52.49;100719.28;10370103;28;20049;-76
2022/06/15 07:03:45;;;;;;;8.82;2.90;;;;;;;17.79;51.80;100715.50;10349374;28;20042;-78
2022/06/15 07:08:50;;;;;;;12.43;4.25;;;;;;;18.37;51.39;100706.50;10353800;28;20042;-78
2022/06/15 07:13:56;;;;;;;7.32;4.07;;;;;;;19.11;49.82;100706.56;10365421;28;20050;-78
2022/06/15 07:18:59;;;;;;;8.38;3.20;;;;;;;20.74;44.48;100704.97;10374828;28;20049;-78
2022/06/15 07:24:03;;;;;;;4.65;2.92;;;;;;;23.27;39.49;100698.03;10400019;28;20052;-78
2022/06/15 07:29:06;;;;;;;6.97;3.03;;;;;;;24.94;37.38;100697.59;10350500;28;20061;-77
2022/06/15 07:34:10;;;;;;;6.88;2.72;;;;;;;28.36;31.14;100693.94;10359572;28;20099;-77
2022/06/15 07:39:16;;;;;;;7.63;2.70;;;;;;;28.06;31.25;100693.94;10364997;28;20045;-77
2022/06/15 07:44:20;;;;;;;7.05;3.35;;;;;;;27.13;32.48;100694.97;10354513;28;20049;-78
2022/06/15 07:54:52;;;;;;;7.20;3.25;;;;;;;26.39;33.43;100696.56;10365648;28;20060;-78
2022/06/15 07:59:54;;;;;;;11.15;3.80;;;;;;;23.55;37.99;100698.00;10356014;28;20049;-78
2022/06/15 08:04:57;;;;;;;5.57;3.10;;;;;;;22.90;39.98;100701.94;10338544;28;20074;-78
2022/06/15 08:10:01;;;;;;;7.47;3.25;;;;;;;23.27;40.46;100703.53;10355156;28;20061;-78
2022/06/15 08:15:06;;;;;;;7.22;3.35;;;;;;;23.42;39.45;100711.63;10350275;28;20054;-77
2022/06/15 08:20:12;;;;;;;4.47;2.50;;;;;;;23.17;41.03;100720.31;10342873;28;20049;-78
2022/06/15 08:25:21;;;;;;;5.45;2.47;;;;;;;23.62;39.63;100712.59;10358286;28;20070;-78
2022/06/15 08:30:24;;;;;;;5.63;2.40;;;;;;;23.95;39.36;100713.84;10359518;28;20053;-77
2022/06/15 08:35:27;;;;;;;6.63;2.20;;;;;;;23.95;37.96;100709.19;10358696;28;20065;-77
2022/06/15 08:40:49;;;;;;;4.18;1.75;;;;;;;23.77;37.98;100701.50;10340165;28;20396;-78
2022/06/15 08:45:59;;;;;;;5.57;2.25;;;;;;;23.76;38.21;100708.06;10347154;28;20527;-77
2022/06/15 08:51:08;;;;;;;4.97;2.20;;;;;;;24.04;37.78;100701.63;10353464;28;20053;-77
2022/06/15 08:56:18;;;;;;;7.70;2.30;;;;;;;24.41;37.49;100697.56;10376164;28;20049;-77
2022/06/15 09:01:31;;;;;;;5.95;2.25;;;;;;;24.72;36.87;100694.19;10392480;28;20049;-78
2022/06/15 09:06:48;;;;;;;4.72;2.00;;;;;;;24.44;37.44;100699.88;10369355;28;20049;-78
2022/06/15 09:17:32;;;;;;;5.43;2.47;;;;;;;24.86;35.89;100694.22;10366277;28;20596;-78
2022/06/15 09:22:39;;;;;;;8.05;2.55;;;;;;;25.09;37.71;100697.38;10363286;28;20057;-78
2022/06/15 09:27:49;;;;;;;7.25;2.67;;;;;;;25.30;37.19;100693.56;10371562;28;20064;-78
2022/06/15 09:32:57;;;;;;;2.88;2.10;;;;;;;25.73;36.09;100695.81;10347240;28;20085;-78
2022/06/15 09:38:04;;;;;;;3.53;2.25;;;;;;;25.85;34.96;100701.47;10357434;28;20049;-77
2022/06/15 09:43:21;;;;;;;6.95;2.00;;;;;;;26.11;34.69;100700.53;10372155;28;20049;-78
2022/06/15 09:48:32;;;;;;;3.50;1.92;;;;;;;26.34;34.84;100694.47;10364042;28;20518;-81
2022/06/15 09:53:45;;;;;;;5.35;2.15;;;;;;;26.25;33.78;100695.81;10358447;28;20500;-80
2022/06/15 09:58:54;;;;;;;7.70;2.40;;;;;;;26.22;35.46;100697.06;10360112;28;20091;-80
2022/06/15 10:03:59;;;;;;;4.80;2.15;;;;;;;26.54;34.64;100688.81;10347327;28;20274;-80
2022/06/15 10:09:06;;;;;;;4.78;2.20;;;;;;;26.78;33.06;100694.59;10361441;28;20046;-80
2022/06/15 10:14:24;;;;;;;6.50;2.78;;;;;;;27.12;34.00;100696.84;10353888;28;20041;-80
2022/06/15 10:19:30;;;;;;;7.45;2.20;;;;;;;27.10;33.89;100690.75;10357288;28;20759;-80
2022/06/15 10:24:36;;;;;;;10.73;3.35;;;;;;;27.45;33.69;100684.66;10361727;28;20064;-80
2022/06/15 10:29:40;;;;;;;6.72;2.30;;;;;;;27.38;33.41;100681.97;10364621;28;20410;-80
2022/06/15 10:34:57;;;;;;;6.38;3.00;;;;;;;27.87;33.20;100682.06;10371166;28;20069;-78
2022/06/15 10:40:02;;;;;;;5.28;2.35;;;;;;;27.69;33.10;100676.56;10357731;28;20495;-79
2022/06/15 10:45:10;;;;;;;8.32;2.72;;;;;;;28.35;32.52;100672.06;10360176;28;20057;-78
2022/06/15 10:50:23;;;;;;;6.60;3.10;;;;;;;28.43;32.85;100669.81;10387272;28;20060;-80
2022/06/15 11:06:18;;;;;;;5.13;2.55;;;;;;;27.26;32.22;100666.38;10365516;28;20459;-78
2022/06/15 11:11:26;;;;;;;7.07;2.42;;;;;;;28.51;31.84;100660.34;10362245;28;20049;-80
2022/06/15 11:22:03;;;;;;;9.85;3.05;;;;;;;29.32;30.27;100650.47;10373976;28;20049;-80
2022/06/15 11:27:19;;;;;;;5.78;2.60;;;;;;;29.41;30.67;100648.16;10367738;28;20168;-78
2022/06/15 11:32:43;;;;;;;5.85;2.45;;;;;;;29.52;30.33;100644.53;10354825;28;20103;-79
2022/06/15 11:37:51;;;;;;;7.10;2.80;;;;;;;29.74;28.23;100636.44;10363267;28;20089;-79
2022/06/15 11:42:54;;;;;;;5.90;2.70;;;;;;;28.91;28.87;100638.44;10375488;28;20045;-79
2022/06/15 11:48:10;;;;;;;4.28;2.35;;;;;;;29.75;29.18;100637.28;10357930;28;20045;-79
2022/06/15 11:53:24;;;;;;;5.97;2.65;;;;;;;29.45;28.17;100629.97;10360732;28;20053;-79
2022/06/15 11:58:42;;;;;;;4.13;2.30;;;;;;;29.40;28.97;100624.34;10362768;28;20192;-79
2022/06/15 12:04:24;;;;;;;7.25;2.28;;;;;;;30.03;28.13;100614.28;10358084;28;20049;-79
2022/06/15 12:09:43;;;;;;;8.85;2.30;;;;;;;30.60;27.39;100619.75;10366563;28;20180;-79
2022/06/15 12:14:53;;;;;;;6.03;2.92;;;;;;;30.98;27.42;100606.22;10363642;28;20076;-80
2022/06/15 12:20:08;;;;;;;9.32;2.70;;;;;;;31.32;26.59;100606.97;10360803;28;20076;-79
2022/06/15 12:25:21;;;;;;;6.93;3.08;;;;;;;31.46;26.38;100607.44;10355556;28;20058;-80
2022/06/15 12:30:33;;;;;;;7.07;2.20;;;;;;;31.33;25.64;100601.19;10358936;28;20959;-80
2022/06/15 12:35:42;;;;;;;5.18;2.70;;;;;;;30.40;28.29;100600.00;10356618;28;20058;-80
2022/06/15 12:40:49;;;;;;;3.30;2.40;;;;;;;31.00;27.00;100593.78;10355869;28;20060;-80
2022/06/15 12:45:57;;;;;;;4.93;2.50;;;;;;;29.28;29.13;100604.16;10369210;28;20488;-80
2022/06/15 12:51:07;;;;;;;6.22;2.80;;;;;;;28.09;29.85;100596.84;10357863;28;20127;-78
2022/06/15 12:56:22;;;;;;;5.82;2.33;;;;;;;30.42;29.40;100604.22;10386986;28;20655;-79
2022/06/15 13:01:33;;;;;;;3.72;2.40;;;;;;;30.94;28.70;100592.03;10375895;28;20057;-78
2022/06/15 13:06:39;;;;;;;5.32;1.95;;;;;;;31.65;27.01;100582.97;10373959;28;20061;-79
2022/06/15 13:11:54;;;;;;;6.53;2.47;;;;;;;31.87;26.87;100578.25;10354282;28;20115;-77
2022/06/15 13:17:02;;;;;;;5.53;2.63;;;;;;;31.98;25.69;100577.25;10347454;28;20061;-78
2022/06/15 13:22:12;;;;;;;6.22;2.63;;;;;;;29.99;27.68;100583.47;10382591;28;20080;-76
2022/06/15 13:27:22;;;;;;;3.42;2.00;;;;;;;31.12;27.75;100571.47;10371900;28;20153;-77
2022/06/15 13:32:51;;;;;;;4.28;2.00;;;;;;;31.06;25.70;100564.19;10374873;28;21169;-78
2022/06/15 13:38:06;;;;;;;5.75;2.05;;;;;;;30.22;25.86;100565.94;10353852;28;20053;-77
2022/06/15 13:43:09;;;;;;;4.10;1.80;;;;;;;30.25;27.82;100568.19;10365921;28;20447;-78
2022/06/15 13:48:15;;;;;;;3.75;1.70;;;;;;;31.52;26.41;100559.25;10365989;28;20072;-78
2022/06/15 13:53:30;;;;;;;4.57;1.85;;;;;;;31.93;26.37;100557.75;10357693;28;20075;-78
2022/06/15 13:59:17;;;;;;;3.17;1.50;;;;;;;32.41;24.31;100560.69;10358071;28;20057;-77
2022/06/15 14:04:42;;;;;;;6.32;1.60;;;;;;;32.29;26.03;100565.63;10330914;28;20057;-78
2022/06/15 14:09:58;;;;;;;4.97;2.00;;;;;;;32.34;25.68;100555.38;10371658;28;20053;-78
2022/06/15 14:15:27;;;;;;;5.63;1.90;;;;;;;29.41;27.84;100567.09;10363492;28;20073;-78
2022/06/15 14:20:33;;;;;;;5.13;1.70;;;;;;;31.09;27.47;100558.09;10363993;28;20057;-78
2022/06/15 14:25:41;;;;;;;3.97;1.70;;;;;;;31.22;26.57;100555.00;10366179;28;20049;-78
2022/06/15 14:30:47;;;;;;;3.03;1.88;;;;;;;32.01;26.30;100545.34;10352154;28;20160;-77
2022/06/15 14:36:00;;;;;;;3.33;2.00;;;;;;;32.30;25.33;100545.88;10361533;28;20143;-77
2022/06/15 14:41:13;;;;;;;3.65;1.60;;;;;;;32.75;24.95;100544.56;10352044;28;20045;-78
2022/06/15 14:46:18;;;;;;;5.45;2.03;;;;;;;31.37;26.64;100548.78;10368642;28;20460;-77
2022/06/15 14:51:23;;;;;;;3.70;1.92;;;;;;;30.12;27.10;100551.03;10362630;28;20049;-78
2022/06/15 14:56:30;;;;;;;3.28;1.73;;;;;;;29.07;29.20;100544.78;10355279;28;20053;-78
2022/06/15 15:01:35;;;;;;;5.55;1.88;;;;;;;29.47;27.44;100538.44;10347133;28;20045;-77
2022/06/15 15:06:38;;;;;;;2.05;1.85;;;;;;;30.93;26.60;100529.31;10349752;28;20046;-77
2022/06/15 15:11:42;;;;;;;4.68;1.80;;;;;;;31.77;26.82;100530.94;10366209;28;20065;-77
2022/06/15 15:16:54;;;;;;;3.03;1.80;;;;;;;32.02;26.35;100524.78;10352745;28;20064;-77
2022/06/15 15:22:05;;;;;;;3.92;2.20;;;;;;;31.78;24.85;100522.31;10359962;28;20089;-77
2022/06/15 15:27:13;;;;;;;5.53;2.23;;;;;;;30.04;25.79;100514.34;10333717;28;20050;-77
2022/06/15 15:38:23;;;;;;;2.53;1.75;;;;;;;31.98;24.67;100520.84;10359396;28;20452;-79
2022/06/15 15:43:31;;;;;;;5.32;2.25;;;;;;;30.41;25.28;100513.84;10363784;28;20080;-78
2022/06/15 15:48:34;;;;;;;3.95;2.05;;;;;;;30.54;24.04;100507.13;10363882;28;20373;-79
2022/06/15 15:53:37;;;;;;;4.32;1.80;;;;;;;31.44;25.03;100516.13;10345738;28;20071;-80
2022/06/15 15:58:45;;;;;;;2.63;1.67;;;;;;;29.12;25.51;100506.19;10371552;28;20080;-78
2022/06/15 16:03:49;;;;;;;2.55;1.63;;;;;;;29.47;24.73;100508.00;10352206;28;20050;-78
2022/06/15 16:08:51;;;;;;;2.42;1.70;;;;;;;29.28;25.83;100505.41;10354485;28;20116;-78
2022/06/15 16:13:56;;;;;;;4.30;2.00;;;;;;;31.93;24.50;100496.66;10363779;28;20518;-77
2022/06/15 16:19:06;;;;;;;3.08;1.60;;;;;;;32.00;25.06;100493.66;10359865;28;20077;-77
2022/06/15 16:24:10;;;;;;;3.30;2.00;;;;;;;31.60;26.12;100492.16;10344996;28;20124;-78
2022/06/15 16:29:15;;;;;;;4.88;1.90;;;;;;;32.97;24.89;100486.00;10347211;28;20046;-78
2022/06/15 16:34:18;;;;;;;4.88;1.92;;;;;;;35.33;20.55;100483.16;10375262;28;20058;-77
2022/06/15 16:39:21;;;;;;;4.28;1.60;;;;;;;37.08;19.93;100477.69;10366708;28;20053;-79
2022/06/15 16:44:25;;;;;;;2.97;1.80;;;;;;;35.12;21.72;100474.06;10351476;28;20088;-77
2022/06/15 16:49:28;;;;;;;4.97;1.67;;;;;;;36.42;20.49;100468.94;10329717;28;20700;-76
2022/06/15 16:54:32;;;;;;;4.03;1.45;;;;;;;36.19;21.19;100478.94;10346178;28;20081;-76
2022/06/15 16:59:37;;;;;;;2.92;1.60;;;;;;;37.04;19.69;100474.66;10345993;28;20056;-77
2022/06/15 17:04:43;;;;;;;6.20;1.70;;;;;;;39.96;17.56;100467.19;10352918;28;20108;-76
2022/06/15 17:09:47;;;;;;;2.70;1.50;;;;;;;39.97;17.22;100476.47;10345580;28;20461;-77
2022/06/15 17:14:52;;;;;;;2.65;1.60;;;;;;;37.98;18.35;100481.44;10333967;28;20049;-77
2022/06/15 17:19:54;;;;;;;3.60;1.77;;;;;;;38.90;18.34;100466.53;10347271;28;20557;-76
2022/06/15 17:24:57;;;;;;;5.00;1.30;;;;;;;38.16;19.14;100479.75;10353597;28;20064;-76
2022/06/15 17:30:03;;;;;;;1.63;1.40;;;;;;;37.07;19.97;100465.66;10348742;28;20237;-76
2022/06/15 17:35:07;;;;;;;1.65;1.42;;;;;;;38.10;19.33;100460.22;10339477;28;20098;-76
2022/06/15 17:40:11;;;;;;;3.60;1.65;;;;;;;36.81;20.62;100456.78;10343270;28;20120;-76
2022/06/15 17:45:15;;;;;;;2.47;1.77;;;;;;;34.81;21.86;100463.84;10331767;28;20127;-76
2022/06/15 17:50:18;;;;;;;5.50;1.85;;;;;;;31.58;25.03;100470.19;10344793;28;20712;-78
2022/06/15 17:55:22;;;;;;;3.38;1.83;;;;;;;29.69;28.18;100481.34;10352066;28;20057;-78
2022/06/15 18:00:26;;;;;;;4.95;1.85;;;;;;;28.58;29.28;100469.59;10352038;28;20185;-80
2022/06/15 18:05:29;;;;;;;3.85;1.73;;;;;;;27.58;30.79;100477.59;10355668;28;20060;-79
2022/06/15 18:10:35;;;;;;;4.38;1.85;;;;;;;26.61;32.01;100483.03;10346972;28;20081;-81
2022/06/15 18:15:41;;;;;;;4.05;1.83;;;;;;;26.13;33.30;100483.66;10360603;28;20131;-84
2022/06/15 18:20:46;;;;;;;2.13;1.90;;;;;;;25.95;33.46;100489.13;10359906;28;20442;-83
2022/06/15 18:25:49;;;;;;;5.63;2.20;;;;;;;25.73;34.18;100485.91;10356706;28;20139;-82
2022/06/15 18:30:56;;;;;;;3.97;2.20;;;;;;;25.38;34.21;100484.38;10357042;28;20107;-82
2022/06/15 18:36:00;;;;;;;4.20;1.90;;;;;;;25.09;34.93;100490.44;10373307;28;20072;-83
2022/06/15 18:41:03;;;;;;;3.00;1.52;;;;;;;24.76;35.55;100492.19;10360302;28;20050;-82
2022/06/15 18:51:28;;;;;;;4.70;2.17;;;;;;;24.21;36.32;100483.38;10331453;28;20041;-81
2022/06/15 18:56:31;;;;;;;6.82;2.30;;;;;;;23.89;36.61;100487.84;10355376;28;20057;-82
2022/06/15 19:01:36;;;;;;;3.10;1.95;;;;;;;23.79;36.19;100484.66;10338926;28;20507;-80
2022/06/15 19:06:39;;;;;;;5.88;2.40;;;;;;;23.52;36.88;100497.44;10350438;28;20050;-82
2022/06/15 19:11:44;;;;;;;5.47;2.13;;;;;;;23.32;37.69;100511.94;10372850;28;20052;-82
2022/06/15 19:16:48;;;;;;;9.18;2.30;;;;;;;23.09;38.40;100509.50;10364441;28;20431;-82
2022/06/15 19:21:51;;;;;;;8.05;2.60;;;;;;;22.84;39.27;100516.50;10367767;28;20499;-80
2022/06/15 19:26:54;;;;;;;3.30;2.00;;;;;;;22.45;40.18;100537.09;10357777;28;20061;-79
2022/06/15 19:32:03;;;;;;;5.55;2.42;;;;;;;22.25;41.15;100542.41;10369950;28;20613;-80
2022/06/15 19:37:07;;;;;;;3.35;2.55;;;;;;;21.95;41.54;100549.91;10374791;28;20052;-82
2022/06/15 19:42:10;;;;;;;5.95;2.30;;;;;;;21.72;42.38;100567.31;10365734;28;20056;-82
2022/06/15 19:47:17;;;;;;;4.03;2.55;;;;;;;21.32;42.56;100575.00;10359143;28;20060;-83
2022/06/15 19:52:21;;;;;;;6.65;2.90;;;;;;;21.14;42.93;100582.75;10393935;28;20111;-83
2022/06/15 19:57:24;;;;;;;6.10;2.70;;;;;;;20.90;42.75;100572.91;10392242;28;20084;-81
2022/06/15 20:02:28;;;;;;;4.82;3.08;;;;;;;20.81;43.59;100577.63;10376784;28;20080;-80
2022/06/15 20:07:31;;;;;;;6.40;3.08;;;;;;;20.60;43.75;100583.81;10373847;28;20046;-81
2022/06/15 20:12:34;;;;;;;6.22;2.60;;;;;;;20.39;43.80;100586.41;10358620;28;20395;-79
2022/06/15 20:17:40;;;;;;;6.53;3.28;;;;;;;20.25;44.27;100596.19;10365940;28;20107;-81
2022/06/15 20:22:48;;;;;;;5.03;3.90;;;;;;;20.13;44.39;100603.97;10367139;28;20057;-80
2022/06/15 20:27:55;;;;;;;9.10;2.85;;;;;;;19.83;44.62;100605.72;10334223;28;20279;-78
2022/06/15 20:33:00;;;;;;;6.32;2.80;;;;;;;19.72;45.09;100604.25;10358861;28;20097;-78
2022/06/15 20:38:02;;;;;;;7.57;3.65;;;;;;;19.58;45.49;100611.28;10371403;28;20141;-79
2022/06/15 20:43:32;;;;;;;6.15;2.33;;;;;;;19.39;45.67;100614.38;10374960;28;20054;-79
2022/06/15 20:48:40;;;;;;;4.40;2.83;;;;;;;19.28;45.68;100615.66;10385869;28;20160;-79
2022/06/15 20:53:43;;;;;;;5.70;2.38;;;;;;;18.94;46.08;100613.19;10362109;28;20057;-79
2022/06/15 20:58:46;;;;;;;6.03;2.50;;;;;;;18.93;46.19;100625.94;10355840;28;20132;-79
2022/06/15 21:03:51;;;;;;;5.00;2.50;;;;;;;18.85;46.66;100623.25;10364409;28;20041;-78
2022/06/15 21:08:56;;;;;;;5.88;2.60;;;;;;;18.65;46.53;100632.75;10354920;28;20083;-78
2022/06/15 21:19:20;;;;;;;3.58;2.53;;;;;;;18.30;46.93;100635.66;10340333;28;20049;-78
2022/06/15 21:24:22;;;;;;;5.50;2.78;;;;;;;;;;10354790;28;20085;-79
2022/06/15 21:29:25;;;;;;;6.63;3.35;;;;;;;17.96;47.52;100643.88;10357042;28;20048;-78
2022/06/15 21:34:30;;;;;;;4.93;3.08;;;;;;;17.95;47.15;100636.75;10364162;28;20164;-79
2022/06/15 21:39:33;;;;;;;6.50;2.85;;;;;;;17.90;47.45;100637.25;10355564;28;20046;-78
2022/06/15 21:44:37;;;;;;;6.07;2.72;;;;;;;17.89;47.35;100638.25;10353143;28;20057;-77
2022/06/15 21:49:42;;;;;;;6.85;2.70;;;;;;;17.82;47.15;100637.22;10352209;28;20053;-80
2022/06/15 21:54:45;;;;;;;7.57;3.22;;;;;;;17.81;47.49;100649.13;10338896;28;20052;-80
2022/06/15 21:59:48;;;;;;;5.57;3.10;;;;;;;17.72;47.44;100644.69;10354476;28;20049;-78
2022/06/15 22:04:55;;;;;;;5.05;3.03;;;;;;;17.66;47.49;100659.78;10363424;28;20046;-80
2022/06/15 22:09:59;;;;;;;7.15;2.60;;;;;;;17.72;47.53;100663.69;10374013;28;20092;-81
2022/06/15 22:15:02;;;;;;;7.47;2.78;;;;;;;17.68;47.70;100665.88;10368569;28;20529;-80
2022/06/15 22:20:11;;;;;;;6.47;3.05;;;;;;;17.42;48.08;100682.25;10367241;28;20060;-80
2022/06/15 22:25:16;;;;;;;7.95;3.22;;;;;;;17.17;48.62;100692.09;10350153;28;20049;-79
2022/06/15 22:30:19;;;;;;;3.75;2.88;;;;;;;16.76;49.77;100701.78;10352608;28;20176;-79
2022/06/15 22:35:23;;;;;;;6.07;2.78;;;;;;;16.80;50.03;100700.44;10362851;28;20157;-79
2022/06/15 22:40:26;;;;;;;5.68;3.28;;;;;;;16.92;49.77;100690.19;10342587;28;20046;-79
2022/06/15 22:45:29;;;;;;;3.67;2.85;;;;;;;16.96;49.68;100688.88;10359546;28;20046;-79
2022/06/15 22:50:42;;;;;;;7.25;3.28;;;;;;;16.89;49.36;100676.94;10355071;28;20052;-79
2022/06/15 22:55:45;;;;;;;6.32;3.40;;;;;;;16.92;49.35;100680.22;10354066;28;20141;-79
2022/06/15 23:00:48;;;;;;;3.47;2.60;;;;;;;16.91;49.42;100680.34;10335943;28;20514;-79
2022/06/15 23:05:53;;;;;;;4.13;2.67;;;;;;;16.84;49.13;100699.13;10363813;28;20077;-79
2022/06/15 23:10:56;;;;;;;5.72;2.95;;;;;;;16.69;49.27;100706.13;10364086;28;20096;-79
2022/06/15 23:16:00;;;;;;;3.63;3.33;;;;;;;16.59;49.44;100701.66;10354623;28;20050;-79
2022/06/15 23:21:05;;;;;;;6.22;3.13;;;;;;;16.56;49.61;100703.78;10362421;28;20057;-78
2022/06/15 23:26:21;;;;;;;7.00;3.10;;;;;;;16.44;50.04;100703.19;10222408;28;20447;-79
2022/06/15 23:31:24;;;;;;;4.88;3.47;;;;;;;16.35;50.37;100702.25;10241005;28;20062;-79
2022/06/15 23:36:29;;;;;;;8.27;3.88;;;;;;;16.22;50.56;100692.78;10231117;28;21049;-79
2022/06/15 23:52:17;;;;;;;6.35;3.50;;;;;;;16.04;51.06;100668.34;10208843;28;20202;-78
2022/06/15 23:57:20;;;;;;;4.38;2.90;;;;;;;15.91;51.49;100668.75;10288558;28;20054;-79
